createdAt,value
2022-10-10T00:02:30.626Z,5.45
2022-10-10T00:05:43.994Z,5.44
2022-10-10T00:08:55.913Z,5.37
2022-10-10T00:12:08.156Z,5.27
2022-10-10T00:15:21.999Z,5.27
2022-10-10T00:18:34.103Z,5.23
2022-10-10T00:21:46.016Z,5.28
2022-10-10T00:24:57.917Z,5.18
2022-10-10T00:28:10.681Z,5.17
2022-10-10T00:31:23.574Z,5.18
2022-10-10T00:34:35.726Z,5.13
2022-10-10T00:37:47.651Z,5.29
2022-10-10T00:41:01.965Z,5.34
2022-10-10T00:44:17.184Z,5.22
2022-10-10T00:47:29.039Z,5.11
2022-10-10T00:50:45.908Z,5.13
2022-10-10T00:54:02.923Z,5.17
2022-10-10T00:57:18.335Z,5.17
2022-10-10T01:00:30.040Z,5.18
2022-10-10T01:03:42.051Z,5.17
2022-10-10T01:06:53.792Z,5.07
2022-10-10T01:10:09.915Z,5.05
2022-10-10T01:13:29.689Z,5.05
2022-10-10T01:16:48.436Z,5.03
2022-10-10T01:20:30.964Z,5.07
2022-10-10T01:24:25.448Z,5.02
2022-10-10T01:27:41.788Z,5.02
2022-10-10T01:30:54.841Z,5.07
2022-10-10T01:34:12.388Z,4.94
2022-10-10T01:37:29.324Z,4.92
2022-10-10T01:40:46.265Z,4.99
2022-10-10T01:44:03.828Z,5.02
2022-10-10T01:47:18.224Z,4.85
2022-10-10T01:50:32.858Z,4.93
2022-10-10T01:53:53.854Z,4.85
2022-10-10T01:57:14.260Z,4.81
2022-10-10T02:00:26.858Z,4.77
2022-10-10T02:03:43.639Z,4.76
2022-10-10T02:07:01.686Z,4.67
2022-10-10T02:10:17.819Z,4.75
2022-10-10T02:13:34.394Z,4.69
2022-10-10T02:16:50.858Z,4.66
2022-10-10T02:20:05.371Z,4.64
2022-10-10T02:23:21.332Z,4.56
2022-10-10T02:26:36.789Z,4.58
2022-10-10T02:29:51.268Z,4.54
2022-10-10T02:33:07.172Z,4.54
2022-10-10T02:36:20.605Z,4.45
2022-10-10T02:39:37.770Z,4.34
2022-10-10T02:42:48.327Z,4.25
2022-10-10T02:46:00.724Z,4.26
2022-10-10T02:49:15.770Z,4.11
2022-10-10T02:52:29.143Z,4.11
2022-10-10T02:55:40.988Z,4.17
2022-10-10T02:58:52.827Z,4.12
2022-10-10T03:02:04.905Z,4.06
2022-10-10T03:05:16.823Z,4.21
2022-10-10T03:08:28.580Z,4.25
2022-10-10T03:11:41.282Z,4.08
2022-10-10T03:14:53.347Z,4.00
2022-10-10T03:18:05.344Z,4.11
2022-10-10T03:21:17.114Z,3.97
2022-10-10T03:24:28.962Z,3.78
2022-10-10T03:27:41.550Z,3.91
2022-10-10T03:30:54.173Z,3.92
2022-10-10T03:34:06.687Z,3.84
2022-10-10T03:37:18.918Z,3.65
2022-10-10T03:40:32.188Z,3.63
2022-10-10T03:43:43.983Z,3.74
2022-10-10T03:46:55.713Z,3.71
2022-10-10T03:50:07.821Z,3.77
2022-10-10T03:53:19.702Z,3.77
2022-10-10T03:56:31.593Z,3.62
2022-10-10T03:59:43.749Z,3.67
2022-10-10T04:02:55.836Z,3.78
2022-10-10T04:06:08.037Z,3.86
2022-10-10T04:09:19.850Z,3.87
2022-10-10T04:12:31.806Z,3.73
2022-10-10T04:15:43.594Z,3.73
2022-10-10T04:18:55.546Z,3.68
2022-10-10T04:22:10.927Z,3.64
2022-10-10T04:25:21.370Z,3.66
2022-10-10T04:28:33.958Z,3.50
2022-10-10T04:31:45.967Z,3.46
2022-10-10T04:34:57.981Z,3.45
2022-10-10T04:38:09.947Z,3.37
2022-10-10T04:41:21.909Z,3.34
2022-10-10T04:44:34.061Z,3.21
2022-10-10T04:50:46.101Z,3.30
2022-10-10T04:53:58.131Z,3.31
2022-10-10T04:57:10.554Z,3.32
2022-10-10T05:00:23.182Z,3.25
2022-10-10T05:03:35.202Z,3.23
2022-10-10T05:06:47.202Z,3.18
2022-10-10T05:09:58.975Z,3.20
2022-10-10T05:13:11.737Z,3.24
2022-10-10T05:16:23.770Z,3.15
2022-10-10T05:19:35.388Z,3.22
2022-10-10T05:22:47.176Z,3.25
2022-10-10T05:25:59.001Z,3.25
2022-10-10T05:29:10.700Z,3.14
2022-10-10T05:32:22.651Z,3.19
2022-10-10T05:35:35.304Z,3.21
2022-10-10T05:38:47.727Z,3.33
2022-10-10T05:41:59.670Z,3.30
2022-10-10T05:45:13.562Z,3.17
2022-10-10T05:48:25.548Z,3.22
2022-10-10T05:51:37.417Z,3.34
2022-10-10T05:54:49.563Z,3.40
2022-10-10T05:58:01.870Z,3.30
2022-10-10T06:01:15.039Z,3.32
2022-10-10T06:04:27.231Z,3.55
2022-10-10T06:07:59.888Z,3.52
2022-10-10T06:10:54.183Z,3.72
2022-10-10T06:14:05.980Z,3.80
2022-10-10T06:17:17.805Z,4.15
2022-10-10T06:20:29.646Z,4.72
2022-10-10T06:23:43.278Z,5.30
2022-10-10T06:26:55.103Z,6.21
2022-10-10T06:30:06.862Z,6.85
2022-10-10T06:33:19.433Z,7.44
2022-10-10T06:36:31.244Z,7.78
2022-10-10T06:39:43.124Z,8.17
2022-10-10T06:42:54.950Z,8.52
2022-10-10T06:46:07.770Z,9.12
2022-10-10T06:49:19.545Z,9.20
2022-10-10T06:52:31.355Z,9.47
2022-10-10T06:55:43.179Z,10.05
2022-10-10T06:58:55.325Z,10.43
2022-10-10T07:02:09.688Z,10.78
2022-10-10T07:05:24.958Z,10.61
2022-10-10T07:08:37.078Z,10.93
2022-10-10T07:11:51.116Z,10.94
2022-10-10T07:15:04.139Z,11.18
2022-10-10T07:18:16.486Z,10.69
2022-10-10T07:21:28.155Z,10.41
2022-10-10T07:24:51.355Z,10.13
2022-10-10T07:28:03.174Z,9.61
2022-10-10T07:31:16.865Z,9.35
2022-10-10T07:34:28.763Z,9.04
2022-10-10T07:37:40.442Z,8.93
2022-10-10T07:40:52.304Z,8.78
2022-10-10T07:44:04.628Z,8.70
2022-10-10T07:47:16.660Z,8.53
2022-10-10T07:50:28.438Z,8.70
2022-10-10T07:53:40.853Z,8.84
2022-10-10T07:56:54.672Z,8.98
2022-10-10T08:00:06.850Z,9.15
2022-10-10T08:03:20.547Z,9.11
2022-10-10T08:06:32.375Z,9.39
2022-10-10T08:09:44.289Z,9.91
2022-10-10T08:12:55.991Z,10.06
2022-10-10T08:16:08.999Z,10.57
2022-10-10T08:19:20.891Z,11.32
2022-10-10T08:22:40.192Z,12.72
2022-10-10T08:25:59.411Z,13.61
2022-10-10T08:29:11.391Z,14.39
2022-10-10T08:32:25.456Z,14.98
2022-10-10T08:35:45.642Z,15.66
2022-10-10T08:39:01.746Z,16.13
2022-10-10T08:42:24.060Z,16.70
2022-10-10T08:45:38.178Z,16.77
2022-10-10T08:48:57.360Z,17.03
2022-10-10T08:52:22.908Z,17.52
2022-10-10T08:55:40.062Z,18.23
2022-10-10T08:59:03.220Z,18.41
2022-10-10T09:03:03.157Z,18.25
2022-10-10T09:06:24.276Z,18.54
2022-10-10T09:09:42.596Z,18.64
2022-10-10T09:13:02.417Z,18.49
2022-10-10T09:16:24.191Z,18.89
2022-10-10T09:19:50.776Z,18.88
2022-10-10T09:23:16.103Z,18.77
2022-10-10T09:26:33.092Z,18.84
2022-10-10T09:29:51.596Z,18.11
2022-10-10T09:33:10.701Z,18.14
2022-10-10T09:36:30.357Z,18.54
2022-10-10T09:39:54.610Z,18.74
2022-10-10T09:43:19.697Z,18.72
2022-10-10T09:46:34.762Z,18.78
2022-10-10T09:49:47.041Z,18.36
2022-10-10T09:53:01.244Z,18.01
2022-10-10T09:56:28.571Z,17.77
2022-10-10T10:00:06.193Z,17.68
2022-10-10T10:03:23.825Z,17.57
2022-10-10T10:10:52.859Z,17.94
2022-10-10T10:17:45.950Z,18.06
2022-10-10T10:21:02.952Z,18.25
2022-10-10T10:24:36.497Z,18.30
2022-10-10T10:31:59.402Z,18.44
2022-10-10T10:35:31.590Z,18.57
2022-10-10T10:39:05.294Z,18.74
2022-10-10T10:42:41.314Z,19.09
2022-10-10T10:46:01.493Z,19.04
2022-10-10T10:49:35.869Z,19.33
2022-10-10T10:53:15.408Z,19.83
2022-10-10T11:00:41.305Z,19.51
2022-10-10T11:05:18.502Z,19.32
2022-10-10T11:07:20.453Z,19.25
2022-10-10T11:10:39.060Z,19.50
2022-10-10T11:13:57.941Z,19.59
2022-10-10T11:17:23.755Z,19.65
2022-10-10T11:20:43.108Z,19.75
2022-10-10T11:24:14.883Z,19.91
2022-10-10T11:27:38.725Z,19.85
2022-10-10T11:34:46.400Z,19.96
2022-10-10T11:38:05.041Z,19.97
2022-10-10T11:41:31.551Z,19.89
2022-10-10T11:45:01.664Z,20.02
2022-10-10T11:48:25.202Z,20.14
2022-10-10T11:51:49.667Z,20.06
2022-10-10T11:55:11.610Z,19.89
2022-10-10T11:58:35.566Z,20.02
2022-10-10T12:02:25.865Z,19.80
2022-10-10T12:05:40.448Z,19.55
2022-10-10T12:09:01.555Z,19.48
2022-10-10T12:12:35.474Z,19.43
2022-10-10T12:15:50.709Z,19.42
2022-10-10T12:19:20.317Z,19.22
2022-10-10T12:22:45.003Z,19.13
2022-10-10T12:25:59.948Z,19.19
2022-10-10T12:29:17.878Z,19.07
2022-10-10T12:32:55.220Z,18.98
2022-10-10T12:36:49.093Z,18.78
2022-10-10T12:40:27.228Z,18.77
2022-10-10T12:43:47.277Z,18.89
2022-10-10T12:48:06.731Z,18.70
2022-10-10T12:51:31.851Z,18.56
2022-10-10T12:55:06.534Z,18.69
2022-10-10T12:58:27.103Z,18.84
2022-10-10T13:01:43.664Z,18.79
2022-10-10T13:04:58.741Z,18.77
2022-10-10T13:08:19.794Z,19.07
2022-10-10T13:11:32.020Z,19.07
2022-10-10T13:14:49.806Z,19.04
2022-10-10T13:18:01.668Z,19.04
2022-10-10T13:21:45.607Z,19.11
2022-10-10T13:25:01.316Z,18.92
2022-10-10T13:28:23.264Z,18.79
2022-10-10T13:31:42.393Z,18.84
2022-10-10T13:35:01.198Z,18.84
2022-10-10T13:38:14.209Z,18.82
2022-10-10T13:41:27.024Z,18.87
2022-10-10T13:44:55.426Z,18.94
2022-10-10T13:48:31.794Z,18.81
2022-10-10T13:51:54.018Z,18.61
2022-10-10T13:55:24.686Z,18.60
2022-10-10T13:58:44.008Z,18.40
2022-10-10T14:02:04.564Z,18.31
2022-10-10T14:05:26.856Z,18.17
2022-10-10T14:08:51.700Z,18.11
2022-10-10T14:12:26.002Z,17.99
2022-10-10T14:15:49.888Z,17.90
2022-10-10T14:19:01.784Z,17.78
2022-10-10T14:22:14.043Z,17.72
2022-10-10T14:25:34.412Z,17.63
2022-10-10T14:29:00.265Z,17.56
2022-10-10T14:32:12.694Z,17.50
2022-10-10T14:35:24.654Z,17.48
2022-10-10T14:38:40.831Z,17.32
2022-10-10T14:41:53.623Z,17.14
2022-10-10T14:45:05.429Z,17.05
2022-10-10T14:48:18.660Z,16.97
2022-10-10T14:51:43.481Z,16.85
2022-10-10T14:54:55.368Z,16.86
2022-10-10T14:58:14.545Z,16.78
2022-10-10T15:01:37.096Z,16.70
2022-10-10T15:04:59.758Z,16.67
2022-10-10T15:08:23.535Z,16.56
2022-10-10T15:11:35.432Z,16.37
2022-10-10T15:14:59.108Z,16.29
2022-10-10T15:18:52.725Z,16.21
2022-10-10T15:21:37.964Z,16.09
2022-10-10T15:28:43.592Z,15.86
2022-10-10T15:31:58.716Z,15.76
2022-10-10T15:35:23.422Z,15.66
2022-10-10T15:38:37.295Z,15.55
2022-10-10T15:41:49.089Z,15.48
2022-10-10T15:45:00.928Z,15.36
2022-10-10T15:48:14.152Z,15.25
2022-10-10T15:51:27.967Z,15.20
2022-10-10T15:54:40.086Z,14.94
2022-10-10T15:57:52.350Z,14.88
2022-10-10T16:01:04.941Z,14.76
2022-10-10T16:04:18.547Z,14.65
2022-10-10T16:07:38.430Z,14.47
2022-10-10T16:10:48.707Z,14.42
2022-10-10T16:14:01.843Z,14.37
2022-10-10T16:17:13.689Z,14.22
2022-10-10T16:20:25.747Z,14.10
2022-10-10T16:23:38.297Z,14.03
2022-10-10T16:26:50.239Z,13.96
2022-10-10T16:30:03.300Z,13.88
2022-10-10T16:33:15.198Z,13.82
2022-10-10T16:36:30.265Z,13.71
2022-10-10T16:39:42.678Z,13.60
2022-10-10T16:42:54.475Z,13.52
2022-10-10T16:46:11.508Z,13.44
2022-10-10T16:49:23.154Z,13.33
2022-10-10T16:52:37.480Z,13.18
2022-10-10T16:55:50.129Z,13.04
2022-10-10T16:59:03.634Z,12.95
2022-10-10T17:02:18.053Z,12.88
2022-10-10T17:05:30.455Z,12.82
2022-10-10T17:08:43.027Z,12.72
2022-10-10T17:11:55.175Z,12.63
2022-10-10T17:15:07.093Z,12.57
2022-10-10T17:18:19.409Z,12.50
2022-10-10T17:21:32.309Z,12.37
2022-10-10T17:24:44.550Z,12.11
2022-10-10T17:27:56.462Z,12.14
2022-10-10T17:31:15.017Z,12.12
2022-10-10T17:34:27.057Z,12.07
2022-10-10T17:37:38.855Z,12.04
2022-10-10T17:40:52.742Z,11.98
2022-10-10T17:44:05.728Z,11.93
2022-10-10T17:47:17.558Z,11.86
2022-10-10T17:50:29.680Z,11.67
2022-10-10T17:53:42.245Z,11.63
2022-10-10T17:56:54.052Z,11.56
2022-10-10T18:00:06.246Z,11.55
2022-10-10T18:03:19.878Z,11.54
2022-10-10T18:06:32.883Z,11.48
2022-10-10T18:09:44.746Z,11.41
2022-10-10T18:12:56.554Z,11.30
2022-10-10T18:16:18.390Z,11.23
2022-10-10T18:19:30.528Z,11.18
2022-10-10T18:22:42.580Z,11.21
2022-10-10T18:25:54.367Z,11.19
2022-10-10T18:29:06.615Z,11.09
2022-10-10T18:32:18.409Z,11.07
2022-10-10T18:35:30.305Z,11.04
2022-10-10T18:38:42.692Z,10.93
2022-10-10T18:41:54.700Z,10.83
2022-10-10T18:45:06.779Z,10.80
2022-10-10T18:48:18.643Z,10.86
2022-10-10T18:51:33.674Z,10.67
2022-10-10T18:54:47.554Z,10.56
2022-10-10T18:57:59.285Z,10.57
2022-10-10T19:01:14.690Z,10.55
2022-10-10T19:04:27.223Z,10.53
2022-10-10T19:07:39.107Z,10.55
2022-10-10T19:10:54.707Z,10.50
2022-10-10T19:14:10.773Z,10.32
2022-10-10T19:17:22.582Z,10.29
2022-10-10T19:20:34.711Z,10.18
2022-10-10T19:23:47.262Z,9.95
2022-10-10T19:27:01.530Z,9.91
2022-10-10T19:30:17.576Z,9.96
2022-10-10T19:33:29.453Z,9.95
2022-10-10T19:36:42.484Z,9.93
2022-10-10T19:39:54.267Z,9.89
2022-10-10T19:43:06.637Z,9.88
2022-10-10T19:46:21.928Z,9.90
2022-10-10T19:49:34.015Z,9.88
2022-10-10T19:52:46.018Z,9.89
2022-10-10T19:56:07.839Z,9.88
2022-10-10T19:59:19.744Z,9.81
2022-10-10T20:02:31.475Z,9.79
2022-10-10T20:05:43.398Z,9.81
2022-10-10T20:08:56.079Z,9.76
2022-10-10T20:12:07.986Z,9.67
2022-10-10T20:15:20.505Z,9.61
2022-10-10T20:18:32.410Z,9.50
2022-10-10T20:21:44.490Z,9.43
2022-10-10T20:24:56.618Z,9.43
2022-10-10T20:28:08.983Z,9.49
2022-10-10T20:31:24.782Z,9.47
2022-10-10T20:34:36.711Z,9.46
2022-10-10T20:37:48.492Z,9.45
2022-10-10T20:41:00.322Z,9.42
2022-10-10T20:44:15.900Z,9.34
2022-10-10T20:47:28.002Z,9.25
2022-10-10T20:50:41.736Z,9.28
2022-10-10T20:53:57.666Z,9.28
2022-10-10T20:57:09.814Z,9.26
2022-10-10T21:00:23.790Z,9.25
2022-10-10T21:03:37.235Z,9.20
2022-10-10T21:06:49.661Z,9.18
2022-10-10T21:10:01.527Z,9.13
2022-10-10T21:13:13.901Z,9.13
2022-10-10T21:16:26.906Z,8.98
2022-10-10T21:19:38.852Z,8.83
2022-10-10T21:22:50.624Z,8.93
2022-10-10T21:26:02.790Z,8.98
2022-10-10T21:29:15.582Z,8.98
2022-10-10T21:32:27.437Z,8.92
2022-10-10T21:35:41.341Z,8.83
2022-10-10T21:38:53.488Z,8.74
2022-10-10T21:42:05.345Z,8.84
2022-10-10T21:45:18.429Z,8.90
2022-10-10T21:48:30.204Z,8.92
2022-10-10T21:51:45.898Z,8.88
2022-10-10T21:54:58.320Z,8.87
2022-10-10T21:58:10.027Z,8.91
2022-10-10T22:01:25.203Z,8.89
2022-10-10T22:08:13.247Z,8.83
2022-10-10T22:11:29.273Z,8.82
2022-10-10T22:14:41.123Z,8.86
2022-10-10T22:17:53.170Z,8.83
2022-10-10T22:21:07.648Z,8.84
2022-10-10T22:24:19.632Z,8.87
2022-10-10T22:27:31.502Z,8.92
2022-10-10T22:30:43.383Z,8.91
2022-10-10T22:33:55.346Z,8.89
2022-10-10T22:37:07.163Z,8.89
2022-10-10T22:40:22.290Z,8.89
2022-10-10T22:43:34.077Z,8.92
2022-10-10T22:46:46.645Z,8.87
2022-10-10T22:49:58.547Z,8.85
2022-10-10T22:53:10.461Z,8.85
2022-10-10T22:56:25.284Z,8.87
2022-10-10T22:59:37.257Z,8.90
2022-10-10T23:02:49.280Z,8.85
2022-10-10T23:06:01.303Z,8.85
2022-10-10T23:09:13.620Z,8.86
2022-10-10T23:12:25.496Z,8.83
2022-10-10T23:15:39.111Z,8.81
2022-10-10T23:18:51.192Z,8.79
2022-10-10T23:22:03.700Z,8.79
2022-10-10T23:25:16.369Z,8.71
2022-10-10T23:28:28.623Z,8.66
2022-10-10T23:31:40.403Z,8.65
2022-10-10T23:34:52.269Z,8.58
2022-10-10T23:38:04.055Z,8.59
2022-10-10T23:41:17.579Z,8.64
2022-10-10T23:44:29.742Z,8.68
2022-10-10T23:47:41.456Z,8.70
2022-10-10T23:50:53.323Z,8.69
2022-10-10T23:54:05.073Z,8.64
2022-10-10T23:57:16.921Z,8.57
